Terminal Aerodrome Forecast
Issued by NWS Omaha/Valley, NE

Home | Current Version | Previous Version | Graphics & Text | Print | Product List | Glossary On
Versions: 1 2 3 4 5 6 7 8 9 10 11 12 13 14 15 16 17 18 19 20 21 22 23 24 25 26 27 28 29 30 31 32 33 34 35 36 37 38 39 40
607
FTUS43 KOAX 230520
TAFOFK
TAF
KOFK 230520Z 2306/2406 16016G26KT P6SM OVC035
     FM230800 17015G24KT P6SM -SHRA SCT015 OVC035
      TEMPO 2309/2313 4SM TSRA OVC025CB
     FM231400 18010KT 6SM BR OVC015
     FM231600 21010KT P6SM OVC025
     FM240000 17008KT P6SM OVC050=

USA.gov is the U.S. government's official web portal to all federal, state and local government web resources and services.